sensor_id;sensor_type;location;lat;lon;timestamp;P1;durP1;ratioP1;P2;durP2;ratioP2
50689;SDS011;71367;48.298;11.238;2024-01-27T00:05:11;7.75;;;3.30;;
50689;SDS011;71367;48.298;11.238;2024-01-27T00:20:15;4.50;;;2.13;;
50689;SDS011;71367;48.298;11.238;2024-01-27T00:35:19;5.63;;;2.35;;
50689;SDS011;71367;48.298;11.238;2024-01-27T00:50:23;4.85;;;2.38;;
50689;SDS011;71367;48.298;11.238;2024-01-27T01:05:26;4.00;;;2.10;;
50689;SDS011;71367;48.298;11.238;2024-01-27T01:20:29;6.57;;;2.30;;
50689;SDS011;71367;48.298;11.238;2024-01-27T01:35:34;5.65;;;2.38;;
50689;SDS011;71367;48.298;11.238;2024-01-27T01:50:39;5.05;;;2.35;;
50689;SDS011;71367;48.298;11.238;2024-01-27T02:05:44;3.80;;;2.33;;
50689;SDS011;71367;48.298;11.238;2024-01-27T02:20:48;5.28;;;2.65;;
50689;SDS011;71367;48.298;11.238;2024-01-27T02:35:51;4.07;;;2.15;;
50689;SDS011;71367;48.298;11.238;2024-01-27T02:50:55;7.85;;;2.65;;
50689;SDS011;71367;48.298;11.238;2024-01-27T03:05:58;8.25;;;2.72;;
50689;SDS011;71367;48.298;11.238;2024-01-27T03:21:03;5.43;;;2.45;;
50689;SDS011;71367;48.298;11.238;2024-01-27T03:36:10;7.35;;;3.45;;
50689;SDS011;71367;48.298;11.238;2024-01-27T03:51:14;5.00;;;2.42;;
50689;SDS011;71367;48.298;11.238;2024-01-27T04:06:17;7.55;;;2.60;;
50689;SDS011;71367;48.298;11.238;2024-01-27T04:21:21;4.57;;;2.53;;
50689;SDS011;71367;48.298;11.238;2024-01-27T04:36:28;5.75;;;2.72;;
50689;SDS011;71367;48.298;11.238;2024-01-27T04:51:31;8.90;;;3.28;;
50689;SDS011;71367;48.298;11.238;2024-01-27T05:06:35;5.60;;;3.10;;
50689;SDS011;71367;48.298;11.238;2024-01-27T05:21:40;8.90;;;3.47;;
50689;SDS011;71367;48.298;11.238;2024-01-27T05:36:44;9.68;;;3.10;;
50689;SDS011;71367;48.298;11.238;2024-01-27T05:51:47;6.45;;;3.47;;
50689;SDS011;71367;48.298;11.238;2024-01-27T06:06:52;11.85;;;3.42;;
50689;SDS011;71367;48.298;11.238;2024-01-27T06:21:55;8.18;;;3.35;;
50689;SDS011;71367;48.298;11.238;2024-01-27T06:36:59;12.63;;;3.35;;
50689;SDS011;71367;48.298;11.238;2024-01-27T06:52:03;7.97;;;4.05;;
50689;SDS011;71367;48.298;11.238;2024-01-27T07:07:07;8.07;;;3.78;;
50689;SDS011;71367;48.298;11.238;2024-01-27T07:22:10;10.15;;;3.92;;
50689;SDS011;71367;48.298;11.238;2024-01-27T07:37:13;10.82;;;4.28;;
50689;SDS011;71367;48.298;11.238;2024-01-27T07:52:17;12.50;;;5.05;;
50689;SDS011;71367;48.298;11.238;2024-01-27T08:07:21;15.82;;;6.05;;
50689;SDS011;71367;48.298;11.238;2024-01-27T08:22:25;18.42;;;10.07;;
50689;SDS011;71367;48.298;11.238;2024-01-27T08:37:29;33.78;;;16.20;;
50689;SDS011;71367;48.298;11.238;2024-01-27T08:52:34;26.90;;;10.75;;
50689;SDS011;71367;48.298;11.238;2024-01-27T09:07:37;25.08;;;8.27;;
50689;SDS011;71367;48.298;11.238;2024-01-27T09:22:41;15.93;;;7.53;;
50689;SDS011;71367;48.298;11.238;2024-01-27T09:37:47;15.93;;;7.53;;
50689;SDS011;71367;48.298;11.238;2024-01-27T09:52:50;13.10;;;6.63;;
50689;SDS011;71367;48.298;11.238;2024-01-27T10:07:55;10.93;;;4.97;;
50689;SDS011;71367;48.298;11.238;2024-01-27T10:22:59;9.85;;;4.95;;
50689;SDS011;71367;48.298;11.238;2024-01-27T10:38:13;22.80;;;11.15;;
50689;SDS011;71367;48.298;11.238;2024-01-27T10:53:19;14.07;;;5.38;;
50689;SDS011;71367;48.298;11.238;2024-01-27T11:08:26;12.25;;;5.47;;
50689;SDS011;71367;48.298;11.238;2024-01-27T11:23:32;12.27;;;5.40;;
50689;SDS011;71367;48.298;11.238;2024-01-27T11:38:37;10.38;;;4.45;;
50689;SDS011;71367;48.298;11.238;2024-01-27T11:53:53;7.90;;;3.63;;
50689;SDS011;71367;48.298;11.238;2024-01-27T13:33:00;12.73;;;3.78;;
50689;SDS011;71367;48.298;11.238;2024-01-27T14:20:30;6.88;;;2.67;;
50689;SDS011;71367;48.298;11.238;2024-01-27T14:53:13;6.85;;;3.65;;
50689;SDS011;71367;48.298;11.238;2024-01-27T15:59:36;20.00;;;3.92;;
50689;SDS011;71367;48.298;11.238;2024-01-27T16:14:49;8.48;;;4.10;;
50689;SDS011;71367;48.298;11.238;2024-01-27T16:30:17;11.00;;;4.03;;
50689;SDS011;71367;48.298;11.238;2024-01-27T16:45:21;10.20;;;4.68;;
50689;SDS011;71367;48.298;11.238;2024-01-27T17:00:24;9.80;;;3.35;;
50689;SDS011;71367;48.298;11.238;2024-01-27T17:15:29;6.55;;;2.83;;
50689;SDS011;71367;48.298;11.238;2024-01-27T17:30:33;8.77;;;3.40;;
50689;SDS011;71367;48.298;11.238;2024-01-27T17:45:36;10.00;;;4.22;;
50689;SDS011;71367;48.298;11.238;2024-01-27T18:00:42;11.98;;;3.92;;
50689;SDS011;71367;48.298;11.238;2024-01-27T18:15:45;17.50;;;6.40;;
50689;SDS011;71367;48.298;11.238;2024-01-27T18:30:49;20.92;;;8.13;;
50689;SDS011;71367;48.298;11.238;2024-01-27T18:45:53;9.98;;;5.22;;
50689;SDS011;71367;48.298;11.238;2024-01-27T19:00:59;13.30;;;5.43;;
50689;SDS011;71367;48.298;11.238;2024-01-27T19:16:03;22.02;;;11.45;;
50689;SDS011;71367;48.298;11.238;2024-01-27T19:31:09;11.90;;;5.28;;
50689;SDS011;71367;48.298;11.238;2024-01-27T19:46:12;20.65;;;9.50;;
50689;SDS011;71367;48.298;11.238;2024-01-27T20:01:16;14.80;;;7.40;;
50689;SDS011;71367;48.298;11.238;2024-01-27T20:16:20;13.27;;;6.68;;
50689;SDS011;71367;48.298;11.238;2024-01-27T20:31:24;12.68;;;6.53;;
50689;SDS011;71367;48.298;11.238;2024-01-27T20:46:29;22.45;;;8.43;;
50689;SDS011;71367;48.298;11.238;2024-01-27T21:01:32;11.93;;;6.65;;
50689;SDS011;71367;48.298;11.238;2024-01-27T21:16:40;18.42;;;9.07;;
50689;SDS011;71367;48.298;11.238;2024-01-27T21:31:43;21.83;;;8.50;;
50689;SDS011;71367;48.298;11.238;2024-01-27T21:46:47;15.70;;;6.80;;
50689;SDS011;71367;48.298;11.238;2024-01-27T22:01:50;40.38;;;15.55;;
50689;SDS011;71367;48.298;11.238;2024-01-27T22:16:53;21.33;;;9.27;;
50689;SDS011;71367;48.298;11.238;2024-01-27T22:31:57;27.63;;;12.13;;
50689;SDS011;71367;48.298;11.238;2024-01-27T22:47:01;27.98;;;10.65;;
50689;SDS011;71367;48.298;11.238;2024-01-27T23:02:04;27.83;;;11.40;;
50689;SDS011;71367;48.298;11.238;2024-01-27T23:17:07;26.05;;;11.23;;
50689;SDS011;71367;48.298;11.238;2024-01-27T23:32:12;44.58;;;13.35;;
50689;SDS011;71367;48.298;11.238;2024-01-27T23:47:17;27.38;;;10.07;;
